createdAt,value
2023-01-19T00:00:21.361Z,38.84
2023-01-19T00:02:48.487Z,38.57
2023-01-19T00:05:15.501Z,38.62
2023-01-19T00:07:42.252Z,38.89
2023-01-19T00:10:09.902Z,39.01
2023-01-19T00:12:36.978Z,38.85
2023-01-19T00:15:03.985Z,38.77
2023-01-19T00:17:30.869Z,38.53
2023-01-19T00:19:57.743Z,38.75
2023-01-19T00:22:24.528Z,38.38
2023-01-19T00:24:51.304Z,38.42
2023-01-19T00:27:18.083Z,38.37
2023-01-19T00:29:44.925Z,38.37
2023-01-19T00:32:11.808Z,38.43
2023-01-19T00:34:39.856Z,38.73
2023-01-19T00:37:07.494Z,38.70
2023-01-19T00:39:34.355Z,38.73
2023-01-19T00:42:11.573Z,39.11
2023-01-19T00:44:38.452Z,39.20
2023-01-19T00:47:06.109Z,39.34
2023-01-19T00:49:32.944Z,39.14
2023-01-19T00:51:59.964Z,39.14
2023-01-19T00:54:27.621Z,39.17
2023-01-19T00:56:54.551Z,39.41
2023-01-19T00:59:21.442Z,39.33
2023-01-19T01:01:48.510Z,39.30
2023-01-19T01:04:15.591Z,39.39
2023-01-19T01:06:42.470Z,39.32
2023-01-19T01:09:12.242Z,39.67
2023-01-19T01:11:40.230Z,39.54
2023-01-19T01:14:07.753Z,39.67
2023-01-19T01:16:34.832Z,39.82
2023-01-19T01:19:01.876Z,40.04
2023-01-19T01:21:28.762Z,39.76
2023-01-19T01:23:55.645Z,40.22
2023-01-19T01:26:22.640Z,40.29
2023-01-19T01:28:49.533Z,40.02
2023-01-19T01:31:16.405Z,40.11
2023-01-19T01:33:43.274Z,40.56
2023-01-19T01:36:12.109Z,40.55
2023-01-19T01:38:40.045Z,40.81
2023-01-19T01:41:07.397Z,40.56
2023-01-19T01:43:44.287Z,40.60
2023-01-19T01:46:11.714Z,40.88
2023-01-19T01:48:39.477Z,40.66
2023-01-19T01:51:18.818Z,40.70
2023-01-19T01:53:47.869Z,40.90
2023-01-19T01:56:18.014Z,40.69
2023-01-19T01:58:44.974Z,40.47
2023-01-19T02:01:21.912Z,40.56
2023-01-19T02:03:48.842Z,40.59
2023-01-19T02:06:15.984Z,40.47
2023-01-19T02:08:55.788Z,40.58
2023-01-19T02:11:31.864Z,40.62
2023-01-19T02:13:58.847Z,40.80
2023-01-19T02:16:25.702Z,40.55
2023-01-19T02:18:52.726Z,40.38
2023-01-19T02:21:20.827Z,40.36
2023-01-19T02:23:50.431Z,40.39
2023-01-19T02:26:19.479Z,40.77
2023-01-19T02:28:50.625Z,40.59
2023-01-19T02:31:17.952Z,40.65
2023-01-19T02:33:44.877Z,40.62
2023-01-19T02:36:13.708Z,40.97
2023-01-19T02:38:41.766Z,40.75
2023-01-19T02:41:12.349Z,40.89
2023-01-19T02:43:39.727Z,40.66
2023-01-19T02:46:06.464Z,40.78
2023-01-19T02:48:33.359Z,41.08
2023-01-19T02:51:04.487Z,41.15
2023-01-19T02:53:31.386Z,41.25
2023-01-19T02:56:06.817Z,41.38
2023-01-19T02:58:40.701Z,41.29
2023-01-19T03:01:17.044Z,41.57
2023-01-19T03:03:55.939Z,41.49
2023-01-19T03:06:23.616Z,41.75
2023-01-19T03:08:56.278Z,41.60
2023-01-19T03:11:25.357Z,41.51
2023-01-19T03:13:56.970Z,41.72
2023-01-19T03:16:27.606Z,41.73
2023-01-19T03:18:58.547Z,41.92
2023-01-19T03:21:27.276Z,41.75
2023-01-19T03:23:56.411Z,41.68
2023-01-19T03:26:25.448Z,41.88
2023-01-19T03:28:53.114Z,41.75
2023-01-19T03:31:23.349Z,42.00
2023-01-19T03:33:53.664Z,42.01
2023-01-19T03:36:24.685Z,41.79
2023-01-19T03:38:52.541Z,41.89
2023-01-19T03:41:21.845Z,42.19
2023-01-19T03:43:50.230Z,42.14
2023-01-19T03:46:19.248Z,41.96
2023-01-19T03:48:46.449Z,42.12
2023-01-19T03:51:14.668Z,42.14
2023-01-19T03:53:42.166Z,42.29
2023-01-19T03:56:17.259Z,41.88
2023-01-19T03:58:44.196Z,42.05
2023-01-19T04:01:11.312Z,42.06
2023-01-19T04:03:38.342Z,42.22
2023-01-19T04:06:05.401Z,42.17
2023-01-19T04:08:32.936Z,42.24
2023-01-19T04:10:59.852Z,41.92
2023-01-19T04:13:28.898Z,41.92
2023-01-19T04:15:56.340Z,42.30
2023-01-19T04:18:23.262Z,42.07
2023-01-19T04:20:50.123Z,42.01
2023-01-19T04:23:17.289Z,42.30
2023-01-19T04:25:44.163Z,42.05
2023-01-19T04:28:11.034Z,42.05
2023-01-19T04:30:38.269Z,42.49
2023-01-19T04:33:05.158Z,42.42
2023-01-19T04:35:32.066Z,42.56
2023-01-19T04:37:58.936Z,42.40
2023-01-19T04:40:25.873Z,42.34
2023-01-19T04:42:52.823Z,42.19
2023-01-19T04:45:19.677Z,42.56
2023-01-19T04:47:46.527Z,42.43
2023-01-19T04:50:13.571Z,42.26
2023-01-19T04:52:40.439Z,42.47
2023-01-19T04:55:07.895Z,42.66
2023-01-19T04:57:34.732Z,42.28
2023-01-19T05:00:01.673Z,42.34
2023-01-19T05:02:28.803Z,42.75
2023-01-19T05:04:55.765Z,42.73
2023-01-19T05:07:22.725Z,42.61
2023-01-19T05:09:49.628Z,42.93
2023-01-19T05:12:16.584Z,42.62
2023-01-19T05:14:43.819Z,42.78
2023-01-19T05:17:10.772Z,42.86
2023-01-19T05:19:37.728Z,42.68
2023-01-19T05:22:05.049Z,42.86
2023-01-19T05:24:32.234Z,42.93
2023-01-19T05:26:59.215Z,43.27
2023-01-19T05:29:26.205Z,43.55
2023-01-19T05:31:53.242Z,44.17
2023-01-19T05:34:20.383Z,43.42
2023-01-19T05:36:47.268Z,43.31
2023-01-19T05:39:14.287Z,43.18
2023-01-19T05:41:42.261Z,43.95
2023-01-19T05:44:09.838Z,43.75
2023-01-19T05:46:36.749Z,44.12
2023-01-19T05:49:05.336Z,44.03
2023-01-19T05:51:35.448Z,44.08
2023-01-19T05:54:02.619Z,44.13
2023-01-19T05:56:29.656Z,43.80
2023-01-19T05:58:56.528Z,43.91
2023-01-19T06:01:23.915Z,44.03
2023-01-19T06:03:51.294Z,44.26
2023-01-19T06:06:19.306Z,43.66
2023-01-19T06:08:46.248Z,43.68
2023-01-19T06:11:13.423Z,43.63
2023-01-19T06:13:41.961Z,43.38
2023-01-19T06:16:09.657Z,43.51
2023-01-19T06:18:36.538Z,43.52
2023-01-19T06:21:04.810Z,43.45
2023-01-19T06:23:32.350Z,42.99
2023-01-19T06:25:59.361Z,43.37
2023-01-19T06:28:26.293Z,43.18
2023-01-19T06:30:54.234Z,42.90
2023-01-19T06:33:21.593Z,43.08
2023-01-19T06:35:49.601Z,42.99
2023-01-19T06:38:18.737Z,42.71
2023-01-19T06:40:46.428Z,42.90
2023-01-19T06:43:13.683Z,42.63
2023-01-19T06:45:40.714Z,42.12
2023-01-19T06:48:08.814Z,42.62
2023-01-19T06:50:35.809Z,42.48
2023-01-19T06:53:03.038Z,42.14
2023-01-19T06:55:30.257Z,42.02
2023-01-19T06:57:58.777Z,41.67
2023-01-19T07:00:26.316Z,41.54
2023-01-19T07:02:53.499Z,42.01
2023-01-19T07:05:22.338Z,42.00
2023-01-19T07:07:52.265Z,41.93
2023-01-19T07:10:19.205Z,41.67
2023-01-19T07:12:47.728Z,41.27
2023-01-19T07:15:16.710Z,41.60
2023-01-19T07:17:44.237Z,41.91
2023-01-19T07:20:14.577Z,41.54
2023-01-19T07:22:42.117Z,41.19
2023-01-19T07:25:09.824Z,41.13
2023-01-19T07:27:36.728Z,40.45
2023-01-19T07:30:04.853Z,40.32
2023-01-19T07:32:31.882Z,40.45
2023-01-19T07:34:59.011Z,40.36
2023-01-19T07:37:25.980Z,39.78
2023-01-19T07:39:52.889Z,39.89
2023-01-19T07:42:19.802Z,39.96
2023-01-19T07:44:47.028Z,39.99
2023-01-19T07:47:14.166Z,39.58
2023-01-19T07:49:41.135Z,39.42
2023-01-19T07:52:08.159Z,39.70
2023-01-19T07:54:35.167Z,39.51
2023-01-19T07:57:02.480Z,39.52
2023-01-19T07:59:30.616Z,38.99
2023-01-19T08:01:59.860Z,39.62
2023-01-19T08:04:27.385Z,35.23
2023-01-19T08:06:55.673Z,36.67
2023-01-19T08:09:23.168Z,37.17
2023-01-19T08:11:50.185Z,37.41
2023-01-19T08:14:17.288Z,37.05
2023-01-19T08:16:44.347Z,37.03
2023-01-19T08:19:11.706Z,37.21
2023-01-19T08:21:39.395Z,36.79
2023-01-19T08:24:06.797Z,37.32
2023-01-19T08:26:35.314Z,36.91
2023-01-19T08:29:04.188Z,37.13
2023-01-19T08:31:31.395Z,36.95
2023-01-19T08:33:58.536Z,37.33
2023-01-19T08:36:25.662Z,36.88
2023-01-19T08:38:52.924Z,37.30
2023-01-19T08:41:20.287Z,36.88
2023-01-19T08:43:47.515Z,37.09
2023-01-19T08:46:17.839Z,36.76
2023-01-19T08:48:45.593Z,36.55
2023-01-19T08:51:13.163Z,36.53
2023-01-19T08:53:40.195Z,36.36
2023-01-19T08:56:12.614Z,36.24
2023-01-19T08:58:41.460Z,36.62
2023-01-19T09:01:09.180Z,36.39
2023-01-19T09:03:36.933Z,36.24
2023-01-19T09:06:07.237Z,36.09
2023-01-19T09:08:34.343Z,35.95
2023-01-19T09:11:01.811Z,36.18
2023-01-19T09:13:29.000Z,36.11
2023-01-19T09:15:56.252Z,35.83
2023-01-19T09:18:23.705Z,35.98
2023-01-19T09:20:51.309Z,36.01
2023-01-19T09:23:19.872Z,35.63
2023-01-19T09:25:47.599Z,36.01
2023-01-19T09:28:15.907Z,35.54
2023-01-19T09:30:43.604Z,35.46
2023-01-19T09:33:11.887Z,35.53
2023-01-19T09:35:39.705Z,35.71
2023-01-19T09:38:09.290Z,35.33
2023-01-19T09:40:42.264Z,35.56
2023-01-19T09:43:12.710Z,35.38
2023-01-19T09:45:46.532Z,35.64
2023-01-19T09:48:16.584Z,35.31
2023-01-19T09:50:47.792Z,35.73
2023-01-19T09:53:19.201Z,35.51
2023-01-19T09:55:46.321Z,35.21
2023-01-19T09:58:16.615Z,35.62
2023-01-19T10:00:47.956Z,35.21
2023-01-19T10:03:16.575Z,35.41
2023-01-19T10:05:45.172Z,35.43
2023-01-19T10:08:18.789Z,35.59
2023-01-19T10:10:48.620Z,35.78
2023-01-19T10:13:17.335Z,35.80
2023-01-19T10:15:50.560Z,35.62
2023-01-19T10:18:17.912Z,35.82
2023-01-19T10:20:47.999Z,35.46
2023-01-19T10:23:18.276Z,35.43
2023-01-19T10:25:45.688Z,35.41
2023-01-19T10:28:14.149Z,35.80
2023-01-19T10:30:43.215Z,35.78
2023-01-19T10:33:12.849Z,35.76
2023-01-19T10:35:39.982Z,36.03
2023-01-19T10:38:12.510Z,35.80
2023-01-19T10:40:48.074Z,35.97
2023-01-19T10:43:18.189Z,35.75
2023-01-19T10:45:50.380Z,35.86
2023-01-19T10:48:17.568Z,36.04
2023-01-19T10:50:44.743Z,35.82
2023-01-19T10:53:14.928Z,36.22
2023-01-19T10:55:42.207Z,36.17
2023-01-19T10:58:27.517Z,36.02
2023-01-19T11:00:54.831Z,36.07
2023-01-19T11:03:23.596Z,36.17
2023-01-19T11:05:51.215Z,36.14
2023-01-19T11:08:21.276Z,36.26
2023-01-19T11:10:53.134Z,35.92
2023-01-19T11:13:20.271Z,36.25
2023-01-19T11:15:47.633Z,36.37
2023-01-19T11:18:17.901Z,36.18
2023-01-19T11:20:48.220Z,36.36
2023-01-19T11:23:16.304Z,36.12
2023-01-19T11:25:46.601Z,36.29
2023-01-19T11:28:16.827Z,36.55
2023-01-19T11:30:54.461Z,36.20
2023-01-19T11:33:24.422Z,36.43
2023-01-19T11:35:52.048Z,36.48
2023-01-19T11:38:20.914Z,36.31
2023-01-19T11:40:51.154Z,36.42
2023-01-19T11:43:18.373Z,36.65
2023-01-19T11:45:46.426Z,36.96
2023-01-19T11:48:19.160Z,36.57
2023-01-19T11:50:46.439Z,36.80
2023-01-19T11:53:16.458Z,36.63
2023-01-19T11:55:49.763Z,36.66
2023-01-19T11:58:17.698Z,36.63
2023-01-19T12:00:47.692Z,36.94
2023-01-19T12:03:18.646Z,37.01
2023-01-19T12:05:49.266Z,37.20
2023-01-19T12:08:19.628Z,37.19
2023-01-19T12:10:48.160Z,37.33
2023-01-19T12:13:20.110Z,37.40
2023-01-19T12:15:48.827Z,37.25
2023-01-19T12:18:20.547Z,37.30
2023-01-19T12:20:49.998Z,37.31
2023-01-19T12:23:25.492Z,37.04
2023-01-19T12:25:55.765Z,37.22
2023-01-19T12:28:27.862Z,37.34
2023-01-19T12:30:55.785Z,37.66
2023-01-19T12:33:26.075Z,37.44
2023-01-19T12:35:57.579Z,37.70
2023-01-19T12:38:33.237Z,37.42
2023-01-19T12:41:03.474Z,37.70
2023-01-19T12:43:30.487Z,37.45
2023-01-19T12:45:57.673Z,37.48
2023-01-19T12:48:25.589Z,37.79
2023-01-19T12:50:52.821Z,37.30
2023-01-19T12:53:21.075Z,37.60
2023-01-19T12:55:58.273Z,37.75
2023-01-19T12:58:26.195Z,37.69
2023-01-19T13:01:12.940Z,37.84
2023-01-19T13:03:43.285Z,37.74
2023-01-19T13:06:10.437Z,37.95
2023-01-19T13:08:40.542Z,37.96
2023-01-19T13:11:10.747Z,38.05
2023-01-19T13:13:38.333Z,37.94
2023-01-19T13:16:08.398Z,37.93
2023-01-19T13:18:41.166Z,38.04
2023-01-19T13:21:09.801Z,37.72
2023-01-19T13:23:39.916Z,38.16
2023-01-19T13:26:07.669Z,37.67
2023-01-19T13:28:38.363Z,37.95
2023-01-19T13:31:07.337Z,38.01
2023-01-19T13:33:40.941Z,37.83
2023-01-19T13:36:17.236Z,37.83
2023-01-19T13:38:44.436Z,37.81
2023-01-19T13:41:15.528Z,38.04
2023-01-19T13:43:43.494Z,37.98
2023-01-19T13:46:12.030Z,37.89
2023-01-19T13:48:39.514Z,37.86
2023-01-19T13:51:07.825Z,37.82
2023-01-19T13:53:35.098Z,37.81
2023-01-19T13:56:05.118Z,38.02
2023-01-19T13:58:32.428Z,37.87
2023-01-19T14:00:59.578Z,37.79
2023-01-19T14:03:27.146Z,37.85
2023-01-19T14:05:55.073Z,38.14
2023-01-19T14:08:23.124Z,37.95
2023-01-19T14:10:53.377Z,38.17
2023-01-19T14:13:22.023Z,37.95
2023-01-19T14:15:51.719Z,37.93
2023-01-19T14:18:19.147Z,37.85
2023-01-19T14:20:49.371Z,38.23
2023-01-19T14:23:24.052Z,37.92
2023-01-19T14:25:51.134Z,38.16
2023-01-19T14:28:21.149Z,38.03
2023-01-19T14:30:51.350Z,37.87
2023-01-19T14:33:21.771Z,37.94
2023-01-19T14:35:48.804Z,38.13
2023-01-19T14:38:16.362Z,38.21
2023-01-19T14:40:44.566Z,38.16
2023-01-19T14:43:13.539Z,38.04
2023-01-19T14:45:41.784Z,38.07
2023-01-19T14:48:11.986Z,38.17
2023-01-19T14:50:44.221Z,38.41
2023-01-19T14:53:16.779Z,38.15
2023-01-19T14:55:44.206Z,38.25
2023-01-19T14:58:13.685Z,38.17
2023-01-19T15:00:41.191Z,38.06
2023-01-19T15:03:10.295Z,38.33
2023-01-19T15:05:39.288Z,38.24
2023-01-19T15:08:07.520Z,38.14
2023-01-19T15:10:35.767Z,38.19
2023-01-19T15:13:02.860Z,38.52
2023-01-19T15:15:31.947Z,38.42
2023-01-19T15:18:00.400Z,38.55
2023-01-19T15:20:28.063Z,38.39
2023-01-19T15:22:55.232Z,38.30
2023-01-19T15:25:26.239Z,38.52
2023-01-19T15:27:53.451Z,38.57
2023-01-19T15:30:24.032Z,38.57
2023-01-19T15:32:51.304Z,38.39
2023-01-19T15:35:20.142Z,38.38
2023-01-19T15:37:47.819Z,38.84
2023-01-19T15:40:15.133Z,39.05
2023-01-19T15:42:42.618Z,38.82
2023-01-19T15:45:12.915Z,38.94
2023-01-19T15:47:40.101Z,38.67
2023-01-19T15:50:08.150Z,38.79
2023-01-19T15:52:35.159Z,39.12
2023-01-19T15:55:02.422Z,39.03
2023-01-19T15:57:29.622Z,39.15
2023-01-19T15:59:56.759Z,38.87
2023-01-19T16:02:23.803Z,38.74
2023-01-19T16:04:50.850Z,39.04
2023-01-19T16:07:17.981Z,39.00
2023-01-19T16:09:45.311Z,38.94
2023-01-19T16:12:12.626Z,38.89
2023-01-19T16:14:39.781Z,38.95
2023-01-19T16:17:07.148Z,38.73
2023-01-19T16:19:34.225Z,39.01
2023-01-19T16:22:01.319Z,39.01
2023-01-19T16:24:28.598Z,38.77
2023-01-19T16:26:55.686Z,38.61
2023-01-19T16:29:22.835Z,38.73
2023-01-19T16:31:50.112Z,38.75
2023-01-19T16:34:18.472Z,38.69
2023-01-19T16:36:45.637Z,38.63
2023-01-19T16:39:14.276Z,38.85
2023-01-19T16:41:41.961Z,38.49
2023-01-19T16:44:10.314Z,38.31
2023-01-19T16:46:39.498Z,38.30
2023-01-19T16:49:11.334Z,38.40
2023-01-19T16:51:38.780Z,38.40
2023-01-19T16:54:05.929Z,38.39
2023-01-19T16:56:33.246Z,38.23
2023-01-19T16:59:00.550Z,37.92
2023-01-19T17:01:29.254Z,38.14
2023-01-19T17:03:56.953Z,37.85
2023-01-19T17:06:24.440Z,38.23
2023-01-19T17:08:52.463Z,37.82
2023-01-19T17:11:22.291Z,38.09
2023-01-19T17:13:54.478Z,37.74
2023-01-19T17:16:22.494Z,37.61
2023-01-19T17:18:49.948Z,37.83
2023-01-19T17:21:18.476Z,37.64
2023-01-19T17:23:46.347Z,37.38
2023-01-19T17:26:13.986Z,37.61
2023-01-19T17:28:41.423Z,37.25
2023-01-19T17:31:11.224Z,37.65
2023-01-19T17:33:39.232Z,37.20
2023-01-19T17:36:07.817Z,37.31
2023-01-19T17:38:35.781Z,37.20
2023-01-19T17:41:02.989Z,37.51
2023-01-19T17:43:30.130Z,37.06
2023-01-19T17:45:57.622Z,37.48
2023-01-19T17:48:25.094Z,37.01
2023-01-19T17:50:54.458Z,37.33
2023-01-19T17:53:22.136Z,37.19
2023-01-19T17:55:49.477Z,36.90
2023-01-19T17:58:16.699Z,37.21
2023-01-19T18:00:43.865Z,37.03
2023-01-19T18:03:11.307Z,37.26
2023-01-19T18:05:38.723Z,36.72
2023-01-19T18:08:06.234Z,36.85
2023-01-19T18:10:33.748Z,36.94
2023-01-19T18:13:00.817Z,36.86
2023-01-19T18:15:28.218Z,36.69
2023-01-19T18:17:55.461Z,36.58
2023-01-19T18:20:23.103Z,36.79
2023-01-19T18:22:50.369Z,36.54
2023-01-19T18:25:17.514Z,36.93
2023-01-19T18:27:44.800Z,36.46
2023-01-19T18:30:12.472Z,36.46
2023-01-19T18:32:40.190Z,36.65
2023-01-19T18:35:07.717Z,36.58
2023-01-19T18:37:35.020Z,36.56
2023-01-19T18:40:04.632Z,36.62
2023-01-19T18:42:34.037Z,36.71
2023-01-19T18:45:02.215Z,36.36
2023-01-19T18:47:29.537Z,36.29
2023-01-19T18:49:56.554Z,36.65
2023-01-19T18:52:23.900Z,36.49
2023-01-19T18:54:50.914Z,36.50
2023-01-19T18:57:19.213Z,36.68
2023-01-19T18:59:47.793Z,36.61
2023-01-19T19:02:15.198Z,36.45
2023-01-19T19:04:42.750Z,36.40
2023-01-19T19:07:09.849Z,36.35
2023-01-19T19:09:36.951Z,36.22
2023-01-19T19:12:04.131Z,36.10
2023-01-19T19:14:31.308Z,36.37
2023-01-19T19:16:58.943Z,36.45
2023-01-19T19:19:26.029Z,36.50
2023-01-19T19:21:54.115Z,36.05
2023-01-19T19:24:21.162Z,36.28
2023-01-19T19:26:48.208Z,36.34
2023-01-19T19:29:15.494Z,36.10
2023-01-19T19:31:42.698Z,36.03
2023-01-19T19:34:12.743Z,36.35
2023-01-19T19:36:39.740Z,35.92
2023-01-19T19:39:06.886Z,36.38
2023-01-19T19:41:34.251Z,36.09
2023-01-19T19:44:01.302Z,36.29
2023-01-19T19:46:28.511Z,36.23
2023-01-19T19:48:55.652Z,36.32
2023-01-19T19:51:25.790Z,36.24
2023-01-19T19:53:54.454Z,36.20
2023-01-19T19:56:23.202Z,35.83
2023-01-19T19:58:51.584Z,35.92
2023-01-19T20:01:19.769Z,36.04
2023-01-19T20:03:47.147Z,35.62
2023-01-19T20:06:15.649Z,35.83
2023-01-19T20:08:42.663Z,35.90
2023-01-19T20:11:12.608Z,35.72
2023-01-19T20:13:40.688Z,35.87
2023-01-19T20:16:10.743Z,35.56
2023-01-19T20:18:39.646Z,35.84
2023-01-19T20:21:10.551Z,35.53
2023-01-19T20:23:38.955Z,35.82
2023-01-19T20:26:08.873Z,35.75
2023-01-19T20:28:37.261Z,35.71
2023-01-19T20:31:07.685Z,35.49
2023-01-19T20:33:35.022Z,35.81
2023-01-19T20:36:02.207Z,35.61
2023-01-19T20:38:29.913Z,35.76
2023-01-19T20:40:56.972Z,35.42
2023-01-19T20:43:24.364Z,35.64
2023-01-19T20:45:53.167Z,35.82
2023-01-19T20:48:20.441Z,35.79
2023-01-19T20:50:47.884Z,35.65
2023-01-19T20:53:15.251Z,35.38
2023-01-19T20:55:42.494Z,35.52
2023-01-19T20:58:09.598Z,35.51
2023-01-19T21:00:37.092Z,35.74
2023-01-19T21:03:04.813Z,35.79
2023-01-19T21:05:32.079Z,35.92
2023-01-19T21:07:59.301Z,35.72
2023-01-19T21:10:26.831Z,35.96
2023-01-19T21:12:54.138Z,35.99
2023-01-19T21:15:21.566Z,35.67
2023-01-19T21:17:49.278Z,36.17
2023-01-19T21:20:17.548Z,35.85
2023-01-19T21:22:45.085Z,36.05
2023-01-19T21:25:12.655Z,35.94
2023-01-19T21:27:40.070Z,35.96
2023-01-19T21:30:07.734Z,35.73
2023-01-19T21:32:34.992Z,35.84
2023-01-19T21:35:02.707Z,36.06
2023-01-19T21:37:30.989Z,35.76
2023-01-19T21:39:58.148Z,35.80
2023-01-19T21:42:25.379Z,35.91
2023-01-19T21:44:52.510Z,36.05
2023-01-19T21:47:19.904Z,36.13
2023-01-19T21:49:47.100Z,36.29
2023-01-19T21:52:14.258Z,36.44
2023-01-19T21:54:41.557Z,36.46
2023-01-19T21:57:08.609Z,36.34
2023-01-19T21:59:35.748Z,36.26
2023-01-19T22:02:03.167Z,36.42
2023-01-19T22:04:30.485Z,36.59
2023-01-19T22:06:57.539Z,36.43
2023-01-19T22:09:24.648Z,36.27
2023-01-19T22:11:52.040Z,36.58
2023-01-19T22:14:19.221Z,36.20
2023-01-19T22:16:46.692Z,36.07
2023-01-19T22:19:14.790Z,36.21
2023-01-19T22:21:42.038Z,36.26
2023-01-19T22:24:09.301Z,36.45
2023-01-19T22:26:37.318Z,36.58
2023-01-19T22:29:05.346Z,36.41
2023-01-19T22:31:32.923Z,36.69
2023-01-19T22:34:00.382Z,36.54
2023-01-19T22:36:30.324Z,36.56
2023-01-19T22:39:00.192Z,36.82
2023-01-19T22:41:29.050Z,37.46
2023-01-19T22:43:57.307Z,37.28
2023-01-19T22:46:25.813Z,37.44
2023-01-19T22:48:53.442Z,37.73
2023-01-19T22:51:22.030Z,37.99
2023-01-19T22:53:49.298Z,37.90
2023-01-19T22:56:19.434Z,37.67
2023-01-19T22:58:46.911Z,37.88
2023-01-19T23:01:15.881Z,38.30
2023-01-19T23:03:43.280Z,38.24
2023-01-19T23:06:12.026Z,38.06
2023-01-19T23:08:39.262Z,38.27
2023-01-19T23:11:07.284Z,38.61
2023-01-19T23:13:42.315Z,38.27
2023-01-19T23:16:10.373Z,38.58
2023-01-19T23:18:37.748Z,38.24
2023-01-19T23:21:05.830Z,38.20
2023-01-19T23:23:33.390Z,38.61
2023-01-19T23:26:04.945Z,38.31
2023-01-19T23:28:31.953Z,38.19
2023-01-19T23:30:59.108Z,38.42
2023-01-19T23:33:26.176Z,38.22
2023-01-19T23:35:55.428Z,38.20
2023-01-19T23:38:22.710Z,38.43
2023-01-19T23:40:49.766Z,38.68
2023-01-19T23:43:16.823Z,39.05
2023-01-19T23:45:43.850Z,38.58
2023-01-19T23:48:10.872Z,38.70
2023-01-19T23:50:39.479Z,38.51
2023-01-19T23:53:06.479Z,38.49
2023-01-19T23:55:33.538Z,38.11
2023-01-19T23:58:00.468Z,38.03
